sensor_id;sensor_type;location;lat;lon;timestamp;temperature;humidity
15013;DHT22;7603;49.432;11.418;2024-01-16T00:01:41;-1.20;99.90
15013;DHT22;7603;49.432;11.418;2024-01-16T00:04:06;-1.20;99.90
15013;DHT22;7603;49.432;11.418;2024-01-16T00:06:33;-1.20;99.90
15013;DHT22;7603;49.432;11.418;2024-01-16T00:08:58;-1.30;99.90
15013;DHT22;7603;49.432;11.418;2024-01-16T00:11:24;-1.30;99.90
15013;DHT22;7603;49.432;11.418;2024-01-16T00:13:50;-1.30;99.90
15013;DHT22;7603;49.432;11.418;2024-01-16T00:16:15;-1.30;99.90
15013;DHT22;7603;49.432;11.418;2024-01-16T00:18:41;-1.30;99.90
15013;DHT22;7603;49.432;11.418;2024-01-16T00:21:06;-1.30;99.90
15013;DHT22;7603;49.432;11.418;2024-01-16T00:23:32;-1.30;99.90
15013;DHT22;7603;49.432;11.418;2024-01-16T00:25:58;-1.30;99.90
15013;DHT22;7603;49.432;11.418;2024-01-16T00:28:24;-1.30;99.90
15013;DHT22;7603;49.432;11.418;2024-01-16T00:30:49;-1.30;99.90
15013;DHT22;7603;49.432;11.418;2024-01-16T00:33:15;-1.30;99.90
15013;DHT22;7603;49.432;11.418;2024-01-16T00:35:41;-1.30;99.90
15013;DHT22;7603;49.432;11.418;2024-01-16T00:38:07;-1.30;99.90
15013;DHT22;7603;49.432;11.418;2024-01-16T00:40:32;-1.30;99.90
15013;DHT22;7603;49.432;11.418;2024-01-16T00:42:58;-1.30;99.90
15013;DHT22;7603;49.432;11.418;2024-01-16T00:45:24;-1.30;99.90
15013;DHT22;7603;49.432;11.418;2024-01-16T00:47:49;-1.30;99.90
15013;DHT22;7603;49.432;11.418;2024-01-16T00:50:15;-1.30;99.90
15013;DHT22;7603;49.432;11.418;2024-01-16T00:52:40;-1.30;99.90
15013;DHT22;7603;49.432;11.418;2024-01-16T00:55:06;-1.30;99.90
15013;DHT22;7603;49.432;11.418;2024-01-16T00:57:32;-1.30;99.90
15013;DHT22;7603;49.432;11.418;2024-01-16T00:59:57;-1.20;99.90
15013;DHT22;7603;49.432;11.418;2024-01-16T01:02:23;-1.20;99.90
15013;DHT22;7603;49.432;11.418;2024-01-16T01:04:49;-1.10;99.90
15013;DHT22;7603;49.432;11.418;2024-01-16T01:07:14;-1.30;99.90
15013;DHT22;7603;49.432;11.418;2024-01-16T01:09:40;-1.20;99.90
15013;DHT22;7603;49.432;11.418;2024-01-16T01:12:06;-1.30;99.90
15013;DHT22;7603;49.432;11.418;2024-01-16T01:14:32;-1.20;99.90
15013;DHT22;7603;49.432;11.418;2024-01-16T01:16:57;-1.30;99.90
15013;DHT22;7603;49.432;11.418;2024-01-16T01:19:23;-1.30;99.90
15013;DHT22;7603;49.432;11.418;2024-01-16T01:21:49;-1.40;99.90
15013;DHT22;7603;49.432;11.418;2024-01-16T01:24:15;-1.30;99.90
15013;DHT22;7603;49.432;11.418;2024-01-16T01:26:44;-1.30;99.90
15013;DHT22;7603;49.432;11.418;2024-01-16T01:29:10;-1.40;99.90
15013;DHT22;7603;49.432;11.418;2024-01-16T01:31:35;-1.40;99.90
15013;DHT22;7603;49.432;11.418;2024-01-16T01:34:01;-1.40;99.90
15013;DHT22;7603;49.432;11.418;2024-01-16T01:36:27;-1.50;99.90
15013;DHT22;7603;49.432;11.418;2024-01-16T01:38:53;-1.40;99.90
15013;DHT22;7603;49.432;11.418;2024-01-16T01:41:18;-1.40;99.90
15013;DHT22;7603;49.432;11.418;2024-01-16T01:43:44;-1.40;99.90
15013;DHT22;7603;49.432;11.418;2024-01-16T01:46:16;-1.40;99.90
15013;DHT22;7603;49.432;11.418;2024-01-16T01:48:43;-1.50;99.90
15013;DHT22;7603;49.432;11.418;2024-01-16T01:51:10;-1.50;99.90
15013;DHT22;7603;49.432;11.418;2024-01-16T01:53:36;-1.50;99.90
15013;DHT22;7603;49.432;11.418;2024-01-16T01:56:04;-1.50;99.90
15013;DHT22;7603;49.432;11.418;2024-01-16T01:58:33;-1.50;99.90
15013;DHT22;7603;49.432;11.418;2024-01-16T02:01:01;-1.50;99.90
15013;DHT22;7603;49.432;11.418;2024-01-16T02:03:29;-1.60;99.90
15013;DHT22;7603;49.432;11.418;2024-01-16T02:05:58;-1.50;99.90
15013;DHT22;7603;49.432;11.418;2024-01-16T02:08:24;-1.50;99.90
15013;DHT22;7603;49.432;11.418;2024-01-16T02:10:50;-1.50;99.90
15013;DHT22;7603;49.432;11.418;2024-01-16T02:13:18;-1.50;99.90
15013;DHT22;7603;49.432;11.418;2024-01-16T02:15:46;-1.60;99.90
15013;DHT22;7603;49.432;11.418;2024-01-16T02:18:12;-1.50;99.90
15013;DHT22;7603;49.432;11.418;2024-01-16T02:20:37;-1.50;99.90
15013;DHT22;7603;49.432;11.418;2024-01-16T02:23:03;-1.60;99.90
15013;DHT22;7603;49.432;11.418;2024-01-16T02:25:30;-1.50;99.90
15013;DHT22;7603;49.432;11.418;2024-01-16T02:27:55;-1.60;99.90
15013;DHT22;7603;49.432;11.418;2024-01-16T02:30:21;-1.60;99.90
15013;DHT22;7603;49.432;11.418;2024-01-16T02:32:47;-1.60;99.90
15013;DHT22;7603;49.432;11.418;2024-01-16T02:35:13;-1.60;99.90
15013;DHT22;7603;49.432;11.418;2024-01-16T02:37:38;-1.60;99.90
15013;DHT22;7603;49.432;11.418;2024-01-16T02:40:04;-1.60;99.90
15013;DHT22;7603;49.432;11.418;2024-01-16T02:42:34;-1.60;99.90
15013;DHT22;7603;49.432;11.418;2024-01-16T02:44:59;-1.60;99.90
15013;DHT22;7603;49.432;11.418;2024-01-16T02:47:25;-1.50;99.90
15013;DHT22;7603;49.432;11.418;2024-01-16T02:49:51;-1.60;99.90
15013;DHT22;7603;49.432;11.418;2024-01-16T02:52:16;-1.60;99.90
15013;DHT22;7603;49.432;11.418;2024-01-16T02:54:42;-1.60;99.90
15013;DHT22;7603;49.432;11.418;2024-01-16T02:57:07;-1.60;99.90
15013;DHT22;7603;49.432;11.418;2024-01-16T02:59:33;-1.60;99.90
15013;DHT22;7603;49.432;11.418;2024-01-16T03:01:59;-1.50;99.90
15013;DHT22;7603;49.432;11.418;2024-01-16T03:04:25;-1.60;99.90
15013;DHT22;7603;49.432;11.418;2024-01-16T03:06:50;-1.60;99.90
15013;DHT22;7603;49.432;11.418;2024-01-16T03:09:16;-1.60;99.90
15013;DHT22;7603;49.432;11.418;2024-01-16T03:11:41;-1.60;99.90
15013;DHT22;7603;49.432;11.418;2024-01-16T03:14:07;-1.60;99.90
15013;DHT22;7603;49.432;11.418;2024-01-16T03:16:33;-1.60;99.90
15013;DHT22;7603;49.432;11.418;2024-01-16T03:18:58;-1.50;99.90
15013;DHT22;7603;49.432;11.418;2024-01-16T03:21:24;-1.50;99.90
15013;DHT22;7603;49.432;11.418;2024-01-16T03:23:50;-1.50;99.90
15013;DHT22;7603;49.432;11.418;2024-01-16T03:26:15;-1.50;99.90
15013;DHT22;7603;49.432;11.418;2024-01-16T03:28:41;-1.50;99.90
15013;DHT22;7603;49.432;11.418;2024-01-16T03:31:07;-1.50;99.90
15013;DHT22;7603;49.432;11.418;2024-01-16T03:33:33;-1.50;99.90
15013;DHT22;7603;49.432;11.418;2024-01-16T03:36:00;-1.50;99.90
15013;DHT22;7603;49.432;11.418;2024-01-16T03:38:26;-1.50;99.90
15013;DHT22;7603;49.432;11.418;2024-01-16T03:40:51;-1.50;99.90
15013;DHT22;7603;49.432;11.418;2024-01-16T03:43:17;-1.50;99.90
15013;DHT22;7603;49.432;11.418;2024-01-16T03:45:44;-1.50;99.90
15013;DHT22;7603;49.432;11.418;2024-01-16T03:48:09;-1.50;99.90
15013;DHT22;7603;49.432;11.418;2024-01-16T03:50:35;-1.50;99.90
15013;DHT22;7603;49.432;11.418;2024-01-16T03:53:02;-1.50;99.90
15013;DHT22;7603;49.432;11.418;2024-01-16T03:55:29;-1.50;99.90
15013;DHT22;7603;49.432;11.418;2024-01-16T03:57:56;-1.50;99.90
15013;DHT22;7603;49.432;11.418;2024-01-16T04:00:22;-1.50;99.90
15013;DHT22;7603;49.432;11.418;2024-01-16T04:02:47;-1.50;99.90
15013;DHT22;7603;49.432;11.418;2024-01-16T04:05:13;-1.50;99.90
15013;DHT22;7603;49.432;11.418;2024-01-16T04:07:38;-1.50;99.90
15013;DHT22;7603;49.432;11.418;2024-01-16T04:10:06;-1.50;99.90
15013;DHT22;7603;49.432;11.418;2024-01-16T04:12:32;-1.50;99.90
15013;DHT22;7603;49.432;11.418;2024-01-16T04:14:57;-1.50;99.90
15013;DHT22;7603;49.432;11.418;2024-01-16T04:17:23;-1.50;99.90
15013;DHT22;7603;49.432;11.418;2024-01-16T04:19:49;-1.50;99.90
15013;DHT22;7603;49.432;11.418;2024-01-16T04:22:14;-1.50;99.90
15013;DHT22;7603;49.432;11.418;2024-01-16T04:24:40;-1.50;99.90
15013;DHT22;7603;49.432;11.418;2024-01-16T04:27:06;-1.50;99.90
15013;DHT22;7603;49.432;11.418;2024-01-16T04:29:31;-1.50;99.90
15013;DHT22;7603;49.432;11.418;2024-01-16T04:31:57;-1.40;99.90
15013;DHT22;7603;49.432;11.418;2024-01-16T04:34:23;-1.40;99.90
15013;DHT22;7603;49.432;11.418;2024-01-16T04:36:49;-1.40;99.90
15013;DHT22;7603;49.432;11.418;2024-01-16T04:39:14;-1.40;99.90
15013;DHT22;7603;49.432;11.418;2024-01-16T04:41:40;-1.50;99.90
15013;DHT22;7603;49.432;11.418;2024-01-16T04:44:06;-1.40;99.90
15013;DHT22;7603;49.432;11.418;2024-01-16T04:46:31;-1.40;99.90
15013;DHT22;7603;49.432;11.418;2024-01-16T04:48:57;-1.40;99.90
15013;DHT22;7603;49.432;11.418;2024-01-16T04:51:23;-1.40;99.90
15013;DHT22;7603;49.432;11.418;2024-01-16T04:53:48;-1.50;99.90
15013;DHT22;7603;49.432;11.418;2024-01-16T04:56:14;-1.40;99.90
15013;DHT22;7603;49.432;11.418;2024-01-16T04:58:39;-1.40;99.90
15013;DHT22;7603;49.432;11.418;2024-01-16T05:01:05;-1.40;99.90
15013;DHT22;7603;49.432;11.418;2024-01-16T05:03:31;-1.40;99.90
15013;DHT22;7603;49.432;11.418;2024-01-16T05:05:56;-1.40;99.90
15013;DHT22;7603;49.432;11.418;2024-01-16T05:08:22;-1.40;99.90
15013;DHT22;7603;49.432;11.418;2024-01-16T05:10:48;-1.40;99.90
15013;DHT22;7603;49.432;11.418;2024-01-16T05:13:14;-1.40;99.90
15013;DHT22;7603;49.432;11.418;2024-01-16T05:15:40;-1.40;99.90
15013;DHT22;7603;49.432;11.418;2024-01-16T05:18:06;-1.40;99.90
15013;DHT22;7603;49.432;11.418;2024-01-16T05:20:32;-1.40;99.90
15013;DHT22;7603;49.432;11.418;2024-01-16T05:22:58;-1.40;99.90
15013;DHT22;7603;49.432;11.418;2024-01-16T05:25:23;-1.50;99.90
15013;DHT22;7603;49.432;11.418;2024-01-16T05:27:50;-1.60;99.90
15013;DHT22;7603;49.432;11.418;2024-01-16T05:30:15;-1.50;99.90
15013;DHT22;7603;49.432;11.418;2024-01-16T05:32:41;-1.50;99.90
15013;DHT22;7603;49.432;11.418;2024-01-16T05:35:07;-1.60;99.90
15013;DHT22;7603;49.432;11.418;2024-01-16T05:37:35;-1.50;99.90
15013;DHT22;7603;49.432;11.418;2024-01-16T05:40:01;-1.50;99.90
15013;DHT22;7603;49.432;11.418;2024-01-16T05:42:28;-1.50;99.90
15013;DHT22;7603;49.432;11.418;2024-01-16T05:44:54;-1.50;99.90
15013;DHT22;7603;49.432;11.418;2024-01-16T05:47:20;-1.40;99.90
15013;DHT22;7603;49.432;11.418;2024-01-16T05:49:45;-1.60;99.90
15013;DHT22;7603;49.432;11.418;2024-01-16T05:52:11;-1.60;99.90
15013;DHT22;7603;49.432;11.418;2024-01-16T05:54:37;-1.60;99.90
15013;DHT22;7603;49.432;11.418;2024-01-16T05:57:02;-1.60;99.90
15013;DHT22;7603;49.432;11.418;2024-01-16T05:59:28;-1.70;99.90
15013;DHT22;7603;49.432;11.418;2024-01-16T06:01:54;-1.70;99.90
15013;DHT22;7603;49.432;11.418;2024-01-16T06:04:19;-1.70;99.90
15013;DHT22;7603;49.432;11.418;2024-01-16T06:06:45;-1.70;99.90
15013;DHT22;7603;49.432;11.418;2024-01-16T06:09:13;-1.60;99.90
15013;DHT22;7603;49.432;11.418;2024-01-16T06:11:40;-1.60;99.90
15013;DHT22;7603;49.432;11.418;2024-01-16T06:14:08;-1.70;99.90
15013;DHT22;7603;49.432;11.418;2024-01-16T06:16:35;-1.60;99.90
15013;DHT22;7603;49.432;11.418;2024-01-16T06:19:01;-1.60;99.90
15013;DHT22;7603;49.432;11.418;2024-01-16T06:21:27;-1.60;99.90
15013;DHT22;7603;49.432;11.418;2024-01-16T06:23:53;-1.70;99.90
15013;DHT22;7603;49.432;11.418;2024-01-16T06:26:18;-1.70;99.90
15013;DHT22;7603;49.432;11.418;2024-01-16T06:28:44;-1.70;99.90
15013;DHT22;7603;49.432;11.418;2024-01-16T06:31:10;-1.70;99.90
15013;DHT22;7603;49.432;11.418;2024-01-16T06:33:36;-1.70;99.90
15013;DHT22;7603;49.432;11.418;2024-01-16T06:36:05;-1.70;99.90
15013;DHT22;7603;49.432;11.418;2024-01-16T06:38:31;-1.70;99.90
15013;DHT22;7603;49.432;11.418;2024-01-16T06:40:57;-1.70;99.90
15013;DHT22;7603;49.432;11.418;2024-01-16T06:43:23;-1.70;99.90
15013;DHT22;7603;49.432;11.418;2024-01-16T06:45:49;-1.70;99.90
15013;DHT22;7603;49.432;11.418;2024-01-16T06:48:14;-1.70;99.90
15013;DHT22;7603;49.432;11.418;2024-01-16T06:50:41;-1.70;99.90
15013;DHT22;7603;49.432;11.418;2024-01-16T06:53:07;-1.70;99.90
15013;DHT22;7603;49.432;11.418;2024-01-16T06:55:32;-1.70;99.90
15013;DHT22;7603;49.432;11.418;2024-01-16T06:57:58;-1.70;99.90
15013;DHT22;7603;49.432;11.418;2024-01-16T07:00:24;-1.70;99.90
15013;DHT22;7603;49.432;11.418;2024-01-16T07:02:52;-1.70;99.90
15013;DHT22;7603;49.432;11.418;2024-01-16T07:05:18;-1.70;99.90
15013;DHT22;7603;49.432;11.418;2024-01-16T07:07:43;-1.70;99.90
15013;DHT22;7603;49.432;11.418;2024-01-16T07:10:09;-1.70;99.90
15013;DHT22;7603;49.432;11.418;2024-01-16T07:12:46;-1.70;99.90
15013;DHT22;7603;49.432;11.418;2024-01-16T07:15:12;-1.70;99.90
15013;DHT22;7603;49.432;11.418;2024-01-16T07:17:39;-1.60;99.90
15013;DHT22;7603;49.432;11.418;2024-01-16T07:20:05;-1.60;99.90
15013;DHT22;7603;49.432;11.418;2024-01-16T07:22:31;-1.60;99.90
15013;DHT22;7603;49.432;11.418;2024-01-16T07:24:56;-1.60;99.90
15013;DHT22;7603;49.432;11.418;2024-01-16T07:27:22;-1.60;99.90
15013;DHT22;7603;49.432;11.418;2024-01-16T07:29:47;-1.60;99.90
15013;DHT22;7603;49.432;11.418;2024-01-16T07:32:13;-1.50;99.90
15013;DHT22;7603;49.432;11.418;2024-01-16T07:34:39;-1.50;99.90
15013;DHT22;7603;49.432;11.418;2024-01-16T07:37:04;-1.50;99.90
15013;DHT22;7603;49.432;11.418;2024-01-16T07:39:30;-1.50;99.90
15013;DHT22;7603;49.432;11.418;2024-01-16T07:41:55;-1.40;99.90
15013;DHT22;7603;49.432;11.418;2024-01-16T07:44:21;-1.50;99.90
15013;DHT22;7603;49.432;11.418;2024-01-16T07:46:47;-1.40;99.90
15013;DHT22;7603;49.432;11.418;2024-01-16T07:49:12;-1.40;99.90
15013;DHT22;7603;49.432;11.418;2024-01-16T07:51:38;-1.30;99.90
15013;DHT22;7603;49.432;11.418;2024-01-16T07:54:08;-1.30;99.90
15013;DHT22;7603;49.432;11.418;2024-01-16T07:56:35;-1.30;99.90
15013;DHT22;7603;49.432;11.418;2024-01-16T07:59:01;-1.30;99.90
15013;DHT22;7603;49.432;11.418;2024-01-16T08:01:28;-1.30;99.90
15013;DHT22;7603;49.432;11.418;2024-01-16T08:03:54;-1.20;99.90
15013;DHT22;7603;49.432;11.418;2024-01-16T08:06:20;-1.20;99.90
15013;DHT22;7603;49.432;11.418;2024-01-16T08:08:46;-1.20;99.90
15013;DHT22;7603;49.432;11.418;2024-01-16T08:11:12;-1.10;99.90
15013;DHT22;7603;49.432;11.418;2024-01-16T08:13:37;-1.10;99.90
15013;DHT22;7603;49.432;11.418;2024-01-16T08:16:04;-1.10;99.90
15013;DHT22;7603;49.432;11.418;2024-01-16T08:18:30;-1.00;99.90
15013;DHT22;7603;49.432;11.418;2024-01-16T08:20:57;-1.00;99.90
15013;DHT22;7603;49.432;11.418;2024-01-16T08:23:23;-0.90;99.90
15013;DHT22;7603;49.432;11.418;2024-01-16T08:25:49;-0.80;99.90
15013;DHT22;7603;49.432;11.418;2024-01-16T08:28:17;-0.70;99.90
15013;DHT22;7603;49.432;11.418;2024-01-16T08:30:43;-0.60;99.90
15013;DHT22;7603;49.432;11.418;2024-01-16T08:33:08;-0.50;99.90
15013;DHT22;7603;49.432;11.418;2024-01-16T08:35:34;-0.50;99.90
15013;DHT22;7603;49.432;11.418;2024-01-16T08:38:00;-0.40;99.90
15013;DHT22;7603;49.432;11.418;2024-01-16T08:40:26;-0.30;99.90
15013;DHT22;7603;49.432;11.418;2024-01-16T08:42:52;-0.30;99.90
15013;DHT22;7603;49.432;11.418;2024-01-16T08:45:22;-0.30;99.90
15013;DHT22;7603;49.432;11.418;2024-01-16T08:47:48;-0.30;99.90
15013;DHT22;7603;49.432;11.418;2024-01-16T08:50:15;-0.30;99.90
15013;DHT22;7603;49.432;11.418;2024-01-16T08:52:41;-0.40;99.90
15013;DHT22;7603;49.432;11.418;2024-01-16T08:55:08;-0.50;99.90
15013;DHT22;7603;49.432;11.418;2024-01-16T08:57:34;-0.50;99.90
15013;DHT22;7603;49.432;11.418;2024-01-16T09:00:00;-0.60;99.90
15013;DHT22;7603;49.432;11.418;2024-01-16T09:02:26;-0.60;99.90
15013;DHT22;7603;49.432;11.418;2024-01-16T09:04:55;-0.60;99.90
15013;DHT22;7603;49.432;11.418;2024-01-16T09:07:20;-0.60;99.90
15013;DHT22;7603;49.432;11.418;2024-01-16T09:09:46;-0.50;99.90
15013;DHT22;7603;49.432;11.418;2024-01-16T09:12:12;-0.40;99.90
15013;DHT22;7603;49.432;11.418;2024-01-16T09:14:37;-0.30;99.90
15013;DHT22;7603;49.432;11.418;2024-01-16T09:17:03;-0.20;99.90
15013;DHT22;7603;49.432;11.418;2024-01-16T09:19:29;-0.20;99.90
15013;DHT22;7603;49.432;11.418;2024-01-16T09:21:55;-0.10;99.90
15013;DHT22;7603;49.432;11.418;2024-01-16T09:24:21;0.00;99.90
15013;DHT22;7603;49.432;11.418;2024-01-16T09:26:47;-0.10;99.90
15013;DHT22;7603;49.432;11.418;2024-01-16T09:29:13;0.00;99.90
15013;DHT22;7603;49.432;11.418;2024-01-16T09:31:40;0.00;99.90
15013;DHT22;7603;49.432;11.418;2024-01-16T09:34:06;0.00;99.90
15013;DHT22;7603;49.432;11.418;2024-01-16T09:36:32;0.00;99.90
15013;DHT22;7603;49.432;11.418;2024-01-16T09:38:58;0.00;99.90
15013;DHT22;7603;49.432;11.418;2024-01-16T09:41:23;-0.10;99.90
15013;DHT22;7603;49.432;11.418;2024-01-16T09:43:49;0.00;99.90
15013;DHT22;7603;49.432;11.418;2024-01-16T09:46:17;0.00;99.90
15013;DHT22;7603;49.432;11.418;2024-01-16T09:48:46;0.00;99.90
15013;DHT22;7603;49.432;11.418;2024-01-16T09:51:12;0.10;99.90
15013;DHT22;7603;49.432;11.418;2024-01-16T09:53:41;0.20;99.90
15013;DHT22;7603;49.432;11.418;2024-01-16T09:56:13;0.10;99.90
15013;DHT22;7603;49.432;11.418;2024-01-16T09:58:41;0.10;99.90
15013;DHT22;7603;49.432;11.418;2024-01-16T10:01:09;0.10;99.90
15013;DHT22;7603;49.432;11.418;2024-01-16T10:03:35;0.00;99.90
15013;DHT22;7603;49.432;11.418;2024-01-16T10:06:04;-0.10;99.90
15013;DHT22;7603;49.432;11.418;2024-01-16T10:08:31;-0.10;99.90
15013;DHT22;7603;49.432;11.418;2024-01-16T10:10:58;-0.10;99.90
15013;DHT22;7603;49.432;11.418;2024-01-16T10:13:25;-0.10;99.90
15013;DHT22;7603;49.432;11.418;2024-01-16T10:15:51;-0.10;99.90
15013;DHT22;7603;49.432;11.418;2024-01-16T10:18:28;0.00;99.90
15013;DHT22;7603;49.432;11.418;2024-01-16T10:20:57;-0.10;99.90
15013;DHT22;7603;49.432;11.418;2024-01-16T10:23:27;0.00;99.90
15013;DHT22;7603;49.432;11.418;2024-01-16T10:26:12;0.10;99.90
15013;DHT22;7603;49.432;11.418;2024-01-16T10:28:39;0.20;99.90
15013;DHT22;7603;49.432;11.418;2024-01-16T10:31:07;0.30;99.90
15013;DHT22;7603;49.432;11.418;2024-01-16T10:33:33;0.30;99.90
15013;DHT22;7603;49.432;11.418;2024-01-16T10:38:35;0.60;99.90
15013;DHT22;7603;49.432;11.418;2024-01-16T10:41:18;0.60;99.90
15013;DHT22;7603;49.432;11.418;2024-01-16T10:43:44;0.60;99.90
15013;DHT22;7603;49.432;11.418;2024-01-16T10:46:14;0.50;99.90
15013;DHT22;7603;49.432;11.418;2024-01-16T10:49:00;0.50;99.90
15013;DHT22;7603;49.432;11.418;2024-01-16T10:51:27;0.40;99.90
15013;DHT22;7603;49.432;11.418;2024-01-16T10:54:06;0.40;99.90
15013;DHT22;7603;49.432;11.418;2024-01-16T10:56:33;0.40;99.90
15013;DHT22;7603;49.432;11.418;2024-01-16T11:01:49;0.60;99.90
15013;DHT22;7603;49.432;11.418;2024-01-16T11:04:18;0.70;99.90
15013;DHT22;7603;49.432;11.418;2024-01-16T11:06:46;0.90;99.90
15013;DHT22;7603;49.432;11.418;2024-01-16T11:09:13;1.00;99.90
15013;DHT22;7603;49.432;11.418;2024-01-16T11:11:44;1.30;99.90
15013;DHT22;7603;49.432;11.418;2024-01-16T11:14:12;1.40;99.90
15013;DHT22;7603;49.432;11.418;2024-01-16T11:16:39;1.70;99.90
15013;DHT22;7603;49.432;11.418;2024-01-16T11:19:08;2.00;99.90
15013;DHT22;7603;49.432;11.418;2024-01-16T11:21:34;2.30;99.90
15013;DHT22;7603;49.432;11.418;2024-01-16T11:24:00;2.40;99.90
15013;DHT22;7603;49.432;11.418;2024-01-16T11:28:53;2.60;99.90
15013;DHT22;7603;49.432;11.418;2024-01-16T11:31:32;2.60;99.90
15013;DHT22;7603;49.432;11.418;2024-01-16T11:33:59;2.60;99.90
15013;DHT22;7603;49.432;11.418;2024-01-16T11:36:50;2.60;99.90
15013;DHT22;7603;49.432;11.418;2024-01-16T11:39:23;2.60;99.90
15013;DHT22;7603;49.432;11.418;2024-01-16T11:41:58;2.60;99.90
15013;DHT22;7603;49.432;11.418;2024-01-16T11:47:06;2.60;99.90
15013;DHT22;7603;49.432;11.418;2024-01-16T11:49:32;2.40;99.90
15013;DHT22;7603;49.432;11.418;2024-01-16T11:51:58;2.20;99.90
15013;DHT22;7603;49.432;11.418;2024-01-16T11:54:24;2.00;99.90
15013;DHT22;7603;49.432;11.418;2024-01-16T11:57:12;1.80;99.90
15013;DHT22;7603;49.432;11.418;2024-01-16T11:59:56;1.70;99.90
15013;DHT22;7603;49.432;11.418;2024-01-16T12:02:29;1.70;99.90
15013;DHT22;7603;49.432;11.418;2024-01-16T12:04:55;1.80;99.90
15013;DHT22;7603;49.432;11.418;2024-01-16T12:07:22;1.90;99.90
15013;DHT22;7603;49.432;11.418;2024-01-16T12:09:48;1.90;99.90
15013;DHT22;7603;49.432;11.418;2024-01-16T12:12:15;2.10;99.90
15013;DHT22;7603;49.432;11.418;2024-01-16T12:14:40;2.20;99.90
15013;DHT22;7603;49.432;11.418;2024-01-16T12:17:13;2.50;99.90
15013;DHT22;7603;49.432;11.418;2024-01-16T12:19:39;2.60;99.90
15013;DHT22;7603;49.432;11.418;2024-01-16T12:22:09;2.80;99.90
15013;DHT22;7603;49.432;11.418;2024-01-16T12:24:36;2.80;99.90
15013;DHT22;7603;49.432;11.418;2024-01-16T12:27:02;2.90;99.90
15013;DHT22;7603;49.432;11.418;2024-01-16T12:29:28;3.10;99.90
15013;DHT22;7603;49.432;11.418;2024-01-16T12:32:11;3.40;99.90
15013;DHT22;7603;49.432;11.418;2024-01-16T12:34:47;3.90;99.90
15013;DHT22;7603;49.432;11.418;2024-01-16T12:37:13;4.20;99.90
15013;DHT22;7603;49.432;11.418;2024-01-16T12:39:40;4.50;99.90
15013;DHT22;7603;49.432;11.418;2024-01-16T12:42:08;4.60;99.90
15013;DHT22;7603;49.432;11.418;2024-01-16T12:44:35;4.80;99.90
15013;DHT22;7603;49.432;11.418;2024-01-16T12:47:01;5.00;99.90
15013;DHT22;7603;49.432;11.418;2024-01-16T12:49:27;5.40;99.90
15013;DHT22;7603;49.432;11.418;2024-01-16T12:52:20;5.70;99.90
15013;DHT22;7603;49.432;11.418;2024-01-16T12:54:49;5.90;99.90
15013;DHT22;7603;49.432;11.418;2024-01-16T12:57:23;6.10;99.90
15013;DHT22;7603;49.432;11.418;2024-01-16T12:59:49;6.30;99.90
15013;DHT22;7603;49.432;11.418;2024-01-16T13:02:22;6.60;99.90
15013;DHT22;7603;49.432;11.418;2024-01-16T13:04:55;6.70;99.90
15013;DHT22;7603;49.432;11.418;2024-01-16T13:07:22;6.50;99.90
15013;DHT22;7603;49.432;11.418;2024-01-16T13:09:47;6.20;99.90
15013;DHT22;7603;49.432;11.418;2024-01-16T13:12:19;6.00;99.90
15013;DHT22;7603;49.432;11.418;2024-01-16T13:14:46;5.70;99.90
15013;DHT22;7603;49.432;11.418;2024-01-16T13:17:11;5.30;99.90
15013;DHT22;7603;49.432;11.418;2024-01-16T13:19:37;5.00;99.90
15013;DHT22;7603;49.432;11.418;2024-01-16T13:22:02;4.80;99.90
15013;DHT22;7603;49.432;11.418;2024-01-16T13:24:29;4.60;99.90
15013;DHT22;7603;49.432;11.418;2024-01-16T13:26:55;4.30;99.90
15013;DHT22;7603;49.432;11.418;2024-01-16T13:29:20;4.10;99.90
15013;DHT22;7603;49.432;11.418;2024-01-16T13:31:46;3.90;99.90
15013;DHT22;7603;49.432;11.418;2024-01-16T13:34:12;3.70;99.90
15013;DHT22;7603;49.432;11.418;2024-01-16T13:36:37;3.70;99.90
15013;DHT22;7603;49.432;11.418;2024-01-16T13:39:03;3.70;99.90
15013;DHT22;7603;49.432;11.418;2024-01-16T13:41:29;3.80;99.90
15013;DHT22;7603;49.432;11.418;2024-01-16T13:43:54;3.90;99.90
15013;DHT22;7603;49.432;11.418;2024-01-16T13:46:20;4.10;99.90
15013;DHT22;7603;49.432;11.418;2024-01-16T13:48:47;4.10;99.90
15013;DHT22;7603;49.432;11.418;2024-01-16T13:51:13;4.00;99.90
15013;DHT22;7603;49.432;11.418;2024-01-16T13:53:39;3.80;99.90
15013;DHT22;7603;49.432;11.418;2024-01-16T13:56:05;3.70;99.90
15013;DHT22;7603;49.432;11.418;2024-01-16T13:58:31;3.70;99.90
15013;DHT22;7603;49.432;11.418;2024-01-16T14:00:57;3.70;99.90
15013;DHT22;7603;49.432;11.418;2024-01-16T14:03:22;3.90;99.90
15013;DHT22;7603;49.432;11.418;2024-01-16T14:05:48;4.30;99.90
15013;DHT22;7603;49.432;11.418;2024-01-16T14:08:13;4.90;99.90
15013;DHT22;7603;49.432;11.418;2024-01-16T14:10:39;5.70;99.90
15013;DHT22;7603;49.432;11.418;2024-01-16T14:13:05;6.40;99.90
15013;DHT22;7603;49.432;11.418;2024-01-16T14:15:31;7.10;99.90
15013;DHT22;7603;49.432;11.418;2024-01-16T14:17:57;7.60;99.90
15013;DHT22;7603;49.432;11.418;2024-01-16T14:20:24;7.80;99.90
15013;DHT22;7603;49.432;11.418;2024-01-16T14:22:55;7.90;98.10
15013;DHT22;7603;49.432;11.418;2024-01-16T14:25:21;7.70;98.10
15013;DHT22;7603;49.432;11.418;2024-01-16T14:28:02;7.40;97.00
15013;DHT22;7603;49.432;11.418;2024-01-16T14:30:34;7.00;96.40
15013;DHT22;7603;49.432;11.418;2024-01-16T14:33:00;6.60;96.20
15013;DHT22;7603;49.432;11.418;2024-01-16T14:35:26;6.20;95.30
15013;DHT22;7603;49.432;11.418;2024-01-16T14:37:52;5.60;95.30
15013;DHT22;7603;49.432;11.418;2024-01-16T14:40:19;5.20;96.40
15013;DHT22;7603;49.432;11.418;2024-01-16T14:42:55;4.80;96.70
15013;DHT22;7603;49.432;11.418;2024-01-16T14:45:23;4.40;96.80
15013;DHT22;7603;49.432;11.418;2024-01-16T14:47:49;4.00;97.40
15013;DHT22;7603;49.432;11.418;2024-01-16T14:50:16;3.70;97.80
15013;DHT22;7603;49.432;11.418;2024-01-16T14:52:46;3.30;98.50
15013;DHT22;7603;49.432;11.418;2024-01-16T14:55:12;2.90;99.20
15013;DHT22;7603;49.432;11.418;2024-01-16T14:57:38;2.60;99.90
15013;DHT22;7603;49.432;11.418;2024-01-16T15:00:12;2.30;99.90
15013;DHT22;7603;49.432;11.418;2024-01-16T15:02:43;2.00;99.90
15013;DHT22;7603;49.432;11.418;2024-01-16T15:05:09;1.70;99.90
15013;DHT22;7603;49.432;11.418;2024-01-16T15:07:35;1.40;99.90
15013;DHT22;7603;49.432;11.418;2024-01-16T15:10:04;1.20;99.90
15013;DHT22;7603;49.432;11.418;2024-01-16T15:12:31;1.10;99.90
15013;DHT22;7603;49.432;11.418;2024-01-16T15:14:57;0.90;99.90
15013;DHT22;7603;49.432;11.418;2024-01-16T15:17:23;0.80;99.90
15013;DHT22;7603;49.432;11.418;2024-01-16T15:19:48;0.60;99.90
15013;DHT22;7603;49.432;11.418;2024-01-16T15:22:14;0.40;99.90
15013;DHT22;7603;49.432;11.418;2024-01-16T15:24:39;0.20;99.90
15013;DHT22;7603;49.432;11.418;2024-01-16T15:27:05;0.10;99.90
15013;DHT22;7603;49.432;11.418;2024-01-16T15:29:31;0.10;99.90
15013;DHT22;7603;49.432;11.418;2024-01-16T15:31:57;-0.20;99.90
15013;DHT22;7603;49.432;11.418;2024-01-16T15:34:23;-0.30;99.90
15013;DHT22;7603;49.432;11.418;2024-01-16T15:36:48;-0.40;99.90
15013;DHT22;7603;49.432;11.418;2024-01-16T15:39:14;-0.60;99.90
15013;DHT22;7603;49.432;11.418;2024-01-16T15:41:43;-0.60;99.90
15013;DHT22;7603;49.432;11.418;2024-01-16T15:44:12;-0.70;99.90
15013;DHT22;7603;49.432;11.418;2024-01-16T15:47:00;-0.80;99.90